sensor_id;sensor_type;location;lat;lon;timestamp;P1;durP1;ratioP1;P2;durP2;ratioP2
10493;SDS011;5294;49.410;8.698;2022-11-04T00:01:32;5.40;;;4.83;;
10493;SDS011;5294;49.410;8.698;2022-11-04T00:04:01;5.03;;;4.63;;
10493;SDS011;5294;49.410;8.698;2022-11-04T00:06:27;4.67;;;4.27;;
10493;SDS011;5294;49.410;8.698;2022-11-04T00:08:53;4.40;;;4.00;;
10493;SDS011;5294;49.410;8.698;2022-11-04T00:11:20;4.73;;;4.33;;
10493;SDS011;5294;49.410;8.698;2022-11-04T00:14:05;3.70;;;3.40;;
10493;SDS011;5294;49.410;8.698;2022-11-04T00:16:31;3.97;;;3.67;;
10493;SDS011;5294;49.410;8.698;2022-11-04T00:19:16;3.57;;;3.30;;
10493;SDS011;5294;49.410;8.698;2022-11-04T00:21:44;3.47;;;3.27;;
10493;SDS011;5294;49.410;8.698;2022-11-04T00:24:29;3.50;;;3.20;;
10493;SDS011;5294;49.410;8.698;2022-11-04T00:27:10;3.30;;;3.10;;
10493;SDS011;5294;49.410;8.698;2022-11-04T00:29:55;3.40;;;3.20;;
10493;SDS011;5294;49.410;8.698;2022-11-04T00:32:25;3.10;;;2.90;;
10493;SDS011;5294;49.410;8.698;2022-11-04T00:35:10;3.10;;;2.90;;
10493;SDS011;5294;49.410;8.698;2022-11-04T00:37:39;3.10;;;2.90;;
10493;SDS011;5294;49.410;8.698;2022-11-04T00:40:09;2.83;;;2.63;;
10493;SDS011;5294;49.410;8.698;2022-11-04T00:42:35;3.07;;;2.77;;
10493;SDS011;5294;49.410;8.698;2022-11-04T00:45:01;2.87;;;2.67;;
10493;SDS011;5294;49.410;8.698;2022-11-04T00:47:32;3.03;;;2.70;;
10493;SDS011;5294;49.410;8.698;2022-11-04T00:49:58;2.83;;;2.63;;
10493;SDS011;5294;49.410;8.698;2022-11-04T00:52:24;3.00;;;2.80;;
10493;SDS011;5294;49.410;8.698;2022-11-04T00:54:50;2.73;;;2.53;;
10493;SDS011;5294;49.410;8.698;2022-11-04T00:57:17;2.90;;;2.60;;
10493;SDS011;5294;49.410;8.698;2022-11-04T00:59:43;3.50;;;2.73;;
10493;SDS011;5294;49.410;8.698;2022-11-04T01:02:09;2.50;;;2.30;;
10493;SDS011;5294;49.410;8.698;2022-11-04T01:04:36;2.60;;;2.40;;
10493;SDS011;5294;49.410;8.698;2022-11-04T01:07:02;2.63;;;2.43;;
10493;SDS011;5294;49.410;8.698;2022-11-04T01:09:28;2.20;;;2.10;;
10493;SDS011;5294;49.410;8.698;2022-11-04T01:11:54;2.70;;;2.50;;
10493;SDS011;5294;49.410;8.698;2022-11-04T01:14:23;2.57;;;2.37;;
10493;SDS011;5294;49.410;8.698;2022-11-04T01:16:51;2.50;;;2.40;;
10493;SDS011;5294;49.410;8.698;2022-11-04T01:19:17;2.60;;;2.47;;
10493;SDS011;5294;49.410;8.698;2022-11-04T01:21:43;2.17;;;1.97;;
10493;SDS011;5294;49.410;8.698;2022-11-04T01:24:09;2.20;;;2.10;;
10493;SDS011;5294;49.410;8.698;2022-11-04T01:26:35;2.63;;;2.30;;
10493;SDS011;5294;49.410;8.698;2022-11-04T01:29:01;2.37;;;2.27;;
10493;SDS011;5294;49.410;8.698;2022-11-04T01:31:28;2.23;;;2.13;;
10493;SDS011;5294;49.410;8.698;2022-11-04T01:33:54;3.57;;;2.40;;
10493;SDS011;5294;49.410;8.698;2022-11-04T01:36:23;3.67;;;2.40;;
10493;SDS011;5294;49.410;8.698;2022-11-04T01:38:53;2.67;;;2.47;;
10493;SDS011;5294;49.410;8.698;2022-11-04T01:41:23;2.40;;;2.30;;
10493;SDS011;5294;49.410;8.698;2022-11-04T01:43:52;2.57;;;2.37;;
10493;SDS011;5294;49.410;8.698;2022-11-04T01:49:15;2.53;;;2.43;;
10493;SDS011;5294;49.410;8.698;2022-11-04T01:51:43;2.60;;;2.40;;
10493;SDS011;5294;49.410;8.698;2022-11-04T01:54:10;2.47;;;2.27;;
10493;SDS011;5294;49.410;8.698;2022-11-04T01:56:38;2.43;;;2.20;;
10493;SDS011;5294;49.410;8.698;2022-11-04T01:59:10;2.80;;;2.60;;
10493;SDS011;5294;49.410;8.698;2022-11-04T02:01:36;2.40;;;2.30;;
10493;SDS011;5294;49.410;8.698;2022-11-04T02:04:02;2.13;;;2.03;;
10493;SDS011;5294;49.410;8.698;2022-11-04T02:06:47;2.63;;;2.43;;
10493;SDS011;5294;49.410;8.698;2022-11-04T02:09:14;2.10;;;1.90;;
10493;SDS011;5294;49.410;8.698;2022-11-04T02:11:44;2.33;;;2.23;;
10493;SDS011;5294;49.410;8.698;2022-11-04T02:14:29;2.70;;;2.50;;
10493;SDS011;5294;49.410;8.698;2022-11-04T02:17:04;3.73;;;2.63;;
10493;SDS011;5294;49.410;8.698;2022-11-04T02:19:51;2.43;;;2.23;;
10493;SDS011;5294;49.410;8.698;2022-11-04T02:22:30;2.40;;;2.20;;
10493;SDS011;5294;49.410;8.698;2022-11-04T02:25:02;2.63;;;2.43;;
10493;SDS011;5294;49.410;8.698;2022-11-04T02:30:15;2.67;;;2.20;;
10493;SDS011;5294;49.410;8.698;2022-11-04T02:47:42;3.90;;;2.40;;
10493;SDS011;5294;49.410;8.698;2022-11-04T02:53:07;2.60;;;2.40;;
10493;SDS011;5294;49.410;8.698;2022-11-04T02:55:37;2.60;;;2.40;;
10493;SDS011;5294;49.410;8.698;2022-11-04T02:58:07;2.10;;;2.00;;
10493;SDS011;5294;49.410;8.698;2022-11-04T03:00:39;2.50;;;2.30;;
10493;SDS011;5294;49.410;8.698;2022-11-04T03:03:27;2.27;;;2.03;;
10493;SDS011;5294;49.410;8.698;2022-11-04T03:05:56;2.67;;;2.43;;
10493;SDS011;5294;49.410;8.698;2022-11-04T03:08:32;3.10;;;2.17;;
10493;SDS011;5294;49.410;8.698;2022-11-04T03:11:02;2.73;;;2.23;;
10493;SDS011;5294;49.410;8.698;2022-11-04T03:13:38;2.63;;;2.00;;
10493;SDS011;5294;49.410;8.698;2022-11-04T03:16:10;2.80;;;2.37;;
10493;SDS011;5294;49.410;8.698;2022-11-04T03:21:12;2.80;;;2.53;;
10493;SDS011;5294;49.410;8.698;2022-11-04T03:23:40;2.30;;;2.10;;
10493;SDS011;5294;49.410;8.698;2022-11-04T03:26:08;4.97;;;2.47;;
10493;SDS011;5294;49.410;8.698;2022-11-04T03:28:40;3.00;;;2.50;;
10493;SDS011;5294;49.410;8.698;2022-11-04T03:31:07;2.87;;;2.37;;
10493;SDS011;5294;49.410;8.698;2022-11-04T03:33:40;4.67;;;2.50;;
10493;SDS011;5294;49.410;8.698;2022-11-04T03:36:08;3.90;;;2.83;;
10493;SDS011;5294;49.410;8.698;2022-11-04T03:38:34;3.07;;;2.50;;
10493;SDS011;5294;49.410;8.698;2022-11-04T03:41:01;3.10;;;2.40;;
10493;SDS011;5294;49.410;8.698;2022-11-04T03:43:29;2.50;;;2.30;;
10493;SDS011;5294;49.410;8.698;2022-11-04T03:45:55;3.30;;;2.47;;
10493;SDS011;5294;49.410;8.698;2022-11-04T03:48:21;3.00;;;2.50;;
10493;SDS011;5294;49.410;8.698;2022-11-04T03:50:47;3.13;;;2.37;;
10493;SDS011;5294;49.410;8.698;2022-11-04T03:53:16;3.67;;;2.80;;
10493;SDS011;5294;49.410;8.698;2022-11-04T03:55:54;3.03;;;2.30;;
10493;SDS011;5294;49.410;8.698;2022-11-04T03:58:44;3.20;;;2.30;;
10493;SDS011;5294;49.410;8.698;2022-11-04T04:01:34;3.43;;;2.37;;
10493;SDS011;5294;49.410;8.698;2022-11-04T04:04:25;4.13;;;2.73;;
10493;SDS011;5294;49.410;8.698;2022-11-04T04:06:53;3.27;;;2.20;;
10493;SDS011;5294;49.410;8.698;2022-11-04T04:09:24;3.33;;;2.63;;
10493;SDS011;5294;49.410;8.698;2022-11-04T04:14:29;2.87;;;2.60;;
10493;SDS011;5294;49.410;8.698;2022-11-04T04:17:11;3.80;;;2.60;;
10493;SDS011;5294;49.410;8.698;2022-11-04T04:19:39;2.33;;;2.13;;
10493;SDS011;5294;49.410;8.698;2022-11-04T04:22:14;4.27;;;2.40;;
10493;SDS011;5294;49.410;8.698;2022-11-04T04:24:42;4.83;;;2.67;;
10493;SDS011;5294;49.410;8.698;2022-11-04T04:27:28;5.10;;;2.63;;
10493;SDS011;5294;49.410;8.698;2022-11-04T04:29:54;3.90;;;2.53;;
10493;SDS011;5294;49.410;8.698;2022-11-04T04:32:21;2.60;;;2.33;;
10493;SDS011;5294;49.410;8.698;2022-11-04T04:34:48;6.37;;;2.87;;
10493;SDS011;5294;49.410;8.698;2022-11-04T04:37:20;3.10;;;2.80;;
10493;SDS011;5294;49.410;8.698;2022-11-04T04:39:52;3.90;;;2.40;;
10493;SDS011;5294;49.410;8.698;2022-11-04T04:42:37;4.67;;;2.50;;
10493;SDS011;5294;49.410;8.698;2022-11-04T04:45:26;3.27;;;2.60;;
10493;SDS011;5294;49.410;8.698;2022-11-04T04:47:55;4.20;;;2.60;;
10493;SDS011;5294;49.410;8.698;2022-11-04T04:50:21;3.47;;;3.17;;
10493;SDS011;5294;49.410;8.698;2022-11-04T04:52:50;5.97;;;2.70;;
10493;SDS011;5294;49.410;8.698;2022-11-04T04:55:16;3.93;;;2.73;;
10493;SDS011;5294;49.410;8.698;2022-11-04T04:57:42;4.50;;;2.37;;
10493;SDS011;5294;49.410;8.698;2022-11-04T05:00:11;5.70;;;3.10;;
10493;SDS011;5294;49.410;8.698;2022-11-04T05:02:37;3.97;;;2.80;;
10493;SDS011;5294;49.410;8.698;2022-11-04T05:05:06;3.17;;;2.20;;
10493;SDS011;5294;49.410;8.698;2022-11-04T05:07:32;2.90;;;2.33;;
10493;SDS011;5294;49.410;8.698;2022-11-04T05:09:58;3.40;;;2.37;;
10493;SDS011;5294;49.410;8.698;2022-11-04T05:12:24;3.00;;;2.50;;
10493;SDS011;5294;49.410;8.698;2022-11-04T05:14:50;5.60;;;2.37;;
10493;SDS011;5294;49.410;8.698;2022-11-04T05:17:16;3.70;;;2.60;;
10493;SDS011;5294;49.410;8.698;2022-11-04T05:19:41;6.33;;;2.43;;
10493;SDS011;5294;49.410;8.698;2022-11-04T05:22:07;3.93;;;2.93;;
10493;SDS011;5294;49.410;8.698;2022-11-04T05:24:33;4.50;;;2.17;;
10493;SDS011;5294;49.410;8.698;2022-11-04T05:26:59;2.87;;;1.87;;
10493;SDS011;5294;49.410;8.698;2022-11-04T05:29:25;3.23;;;2.13;;
10493;SDS011;5294;49.410;8.698;2022-11-04T05:31:51;3.17;;;2.60;;
10493;SDS011;5294;49.410;8.698;2022-11-04T05:34:17;4.10;;;2.20;;
10493;SDS011;5294;49.410;8.698;2022-11-04T05:36:43;3.10;;;2.20;;
10493;SDS011;5294;49.410;8.698;2022-11-04T05:39:10;4.03;;;2.10;;
10493;SDS011;5294;49.410;8.698;2022-11-04T05:41:37;6.47;;;2.80;;
10493;SDS011;5294;49.410;8.698;2022-11-04T05:44:03;2.97;;;2.40;;
10493;SDS011;5294;49.410;8.698;2022-11-04T05:46:29;3.67;;;2.03;;
10493;SDS011;5294;49.410;8.698;2022-11-04T05:48:58;4.53;;;2.67;;
10493;SDS011;5294;49.410;8.698;2022-11-04T05:51:25;4.37;;;2.80;;
10493;SDS011;5294;49.410;8.698;2022-11-04T05:53:53;6.93;;;2.80;;
10493;SDS011;5294;49.410;8.698;2022-11-04T05:56:19;4.37;;;2.70;;
10493;SDS011;5294;49.410;8.698;2022-11-04T05:58:45;3.77;;;2.33;;
10493;SDS011;5294;49.410;8.698;2022-11-04T06:03:52;5.30;;;2.80;;
10493;SDS011;5294;49.410;8.698;2022-11-04T06:06:21;5.67;;;2.80;;
10493;SDS011;5294;49.410;8.698;2022-11-04T06:08:49;3.50;;;2.73;;
10493;SDS011;5294;49.410;8.698;2022-11-04T06:11:19;6.17;;;3.00;;
10493;SDS011;5294;49.410;8.698;2022-11-04T06:13:45;4.07;;;3.30;;
10493;SDS011;5294;49.410;8.698;2022-11-04T06:16:16;4.40;;;2.77;;
10493;SDS011;5294;49.410;8.698;2022-11-04T06:18:42;3.40;;;2.63;;
10493;SDS011;5294;49.410;8.698;2022-11-04T06:21:09;3.37;;;2.77;;
10493;SDS011;5294;49.410;8.698;2022-11-04T06:23:35;2.70;;;2.50;;
10493;SDS011;5294;49.410;8.698;2022-11-04T06:26:01;4.13;;;2.97;;
10493;SDS011;5294;49.410;8.698;2022-11-04T06:28:30;3.33;;;2.70;;
10493;SDS011;5294;49.410;8.698;2022-11-04T06:30:58;5.80;;;3.10;;
10493;SDS011;5294;49.410;8.698;2022-11-04T06:33:25;3.33;;;2.70;;
10493;SDS011;5294;49.410;8.698;2022-11-04T06:35:51;3.83;;;2.90;;
10493;SDS011;5294;49.410;8.698;2022-11-04T06:38:17;5.33;;;2.97;;
10493;SDS011;5294;49.410;8.698;2022-11-04T06:40:46;6.37;;;3.23;;
10493;SDS011;5294;49.410;8.698;2022-11-04T06:43:12;3.13;;;2.63;;
10493;SDS011;5294;49.410;8.698;2022-11-04T06:45:38;4.00;;;2.80;;
10493;SDS011;5294;49.410;8.698;2022-11-04T06:48:04;4.20;;;2.50;;
10493;SDS011;5294;49.410;8.698;2022-11-04T06:50:32;3.23;;;2.73;;
10493;SDS011;5294;49.410;8.698;2022-11-04T06:52:58;3.57;;;2.80;;
10493;SDS011;5294;49.410;8.698;2022-11-04T06:55:24;3.47;;;2.73;;
10493;SDS011;5294;49.410;8.698;2022-11-04T06:57:50;5.77;;;2.80;;
10493;SDS011;5294;49.410;8.698;2022-11-04T07:00:16;4.10;;;2.90;;
10493;SDS011;5294;49.410;8.698;2022-11-04T07:02:42;4.33;;;2.73;;
10493;SDS011;5294;49.410;8.698;2022-11-04T07:05:08;4.07;;;2.80;;
10493;SDS011;5294;49.410;8.698;2022-11-04T07:07:36;4.17;;;2.70;;
10493;SDS011;5294;49.410;8.698;2022-11-04T07:10:02;5.07;;;3.03;;
10493;SDS011;5294;49.410;8.698;2022-11-04T07:12:28;3.33;;;2.70;;
10493;SDS011;5294;49.410;8.698;2022-11-04T07:14:54;3.57;;;3.00;;
10493;SDS011;5294;49.410;8.698;2022-11-04T07:17:20;4.70;;;2.77;;
10493;SDS011;5294;49.410;8.698;2022-11-04T07:19:46;4.43;;;3.07;;
10493;SDS011;5294;49.410;8.698;2022-11-04T07:22:12;4.73;;;3.20;;
10493;SDS011;5294;49.410;8.698;2022-11-04T07:24:38;7.07;;;3.10;;
10493;SDS011;5294;49.410;8.698;2022-11-04T07:27:07;4.90;;;3.33;;
10493;SDS011;5294;49.410;8.698;2022-11-04T07:29:33;3.83;;;2.97;;
10493;SDS011;5294;49.410;8.698;2022-11-04T07:31:59;4.73;;;3.10;;
10493;SDS011;5294;49.410;8.698;2022-11-04T07:34:25;7.37;;;3.57;;
10493;SDS011;5294;49.410;8.698;2022-11-04T07:36:52;5.80;;;3.40;;
10493;SDS011;5294;49.410;8.698;2022-11-04T07:39:18;3.17;;;2.60;;
10493;SDS011;5294;49.410;8.698;2022-11-04T07:41:47;5.30;;;3.30;;
10493;SDS011;5294;49.410;8.698;2022-11-04T07:44:13;4.90;;;2.70;;
10493;SDS011;5294;49.410;8.698;2022-11-04T07:46:41;6.30;;;3.37;;
10493;SDS011;5294;49.410;8.698;2022-11-04T07:49:07;3.53;;;2.97;;
10493;SDS011;5294;49.410;8.698;2022-11-04T07:51:33;3.47;;;2.80;;
10493;SDS011;5294;49.410;8.698;2022-11-04T07:53:59;5.87;;;3.40;;
10493;SDS011;5294;49.410;8.698;2022-11-04T07:56:28;3.67;;;3.00;;
10493;SDS011;5294;49.410;8.698;2022-11-04T07:58:56;4.20;;;3.20;;
10493;SDS011;5294;49.410;8.698;2022-11-04T08:01:25;3.87;;;3.00;;
10493;SDS011;5294;49.410;8.698;2022-11-04T08:03:53;5.10;;;3.43;;
10493;SDS011;5294;49.410;8.698;2022-11-04T08:06:19;5.33;;;2.73;;
10493;SDS011;5294;49.410;8.698;2022-11-04T08:08:48;4.97;;;3.20;;
10493;SDS011;5294;49.410;8.698;2022-11-04T08:11:15;3.73;;;2.63;;
10493;SDS011;5294;49.410;8.698;2022-11-04T08:13:41;5.63;;;3.00;;
10493;SDS011;5294;49.410;8.698;2022-11-04T08:16:19;2.70;;;2.50;;
10493;SDS011;5294;49.410;8.698;2022-11-04T08:18:46;3.60;;;2.80;;
10493;SDS011;5294;49.410;8.698;2022-11-04T08:21:16;3.00;;;2.70;;
10493;SDS011;5294;49.410;8.698;2022-11-04T08:23:42;2.17;;;1.97;;
10493;SDS011;5294;49.410;8.698;2022-11-04T08:26:10;3.40;;;2.50;;
10493;SDS011;5294;49.410;8.698;2022-11-04T08:28:37;3.97;;;2.60;;
10493;SDS011;5294;49.410;8.698;2022-11-04T08:31:06;3.63;;;2.73;;
10493;SDS011;5294;49.410;8.698;2022-11-04T08:33:33;2.67;;;2.33;;
10493;SDS011;5294;49.410;8.698;2022-11-04T08:36:06;6.97;;;2.80;;
10493;SDS011;5294;49.410;8.698;2022-11-04T08:38:36;3.00;;;2.10;;
10493;SDS011;5294;49.410;8.698;2022-11-04T08:41:05;3.17;;;2.80;;
10493;SDS011;5294;49.410;8.698;2022-11-04T08:43:32;1.90;;;1.80;;
10493;SDS011;5294;49.410;8.698;2022-11-04T08:45:59;2.77;;;2.37;;
10493;SDS011;5294;49.410;8.698;2022-11-04T08:48:25;3.37;;;2.77;;
10493;SDS011;5294;49.410;8.698;2022-11-04T08:50:54;2.90;;;2.60;;
10493;SDS011;5294;49.410;8.698;2022-11-04T08:53:20;4.83;;;2.37;;
10493;SDS011;5294;49.410;8.698;2022-11-04T08:55:47;2.60;;;2.00;;
10493;SDS011;5294;49.410;8.698;2022-11-04T08:58:13;2.93;;;2.30;;
10493;SDS011;5294;49.410;8.698;2022-11-04T09:00:39;3.57;;;2.70;;
10493;SDS011;5294;49.410;8.698;2022-11-04T09:03:07;4.83;;;2.53;;
10493;SDS011;5294;49.410;8.698;2022-11-04T09:05:35;3.83;;;2.60;;
10493;SDS011;5294;49.410;8.698;2022-11-04T09:08:08;2.87;;;2.57;;
10493;SDS011;5294;49.410;8.698;2022-11-04T09:10:39;3.00;;;2.67;;
10493;SDS011;5294;49.410;8.698;2022-11-04T09:13:05;2.63;;;2.43;;
10493;SDS011;5294;49.410;8.698;2022-11-04T09:15:34;3.27;;;2.50;;
10493;SDS011;5294;49.410;8.698;2022-11-04T09:18:00;2.90;;;2.50;;
10493;SDS011;5294;49.410;8.698;2022-11-04T09:20:26;2.33;;;2.10;;
10493;SDS011;5294;49.410;8.698;2022-11-04T09:22:54;3.57;;;2.60;;
10493;SDS011;5294;49.410;8.698;2022-11-04T09:25:22;3.57;;;2.30;;
10493;SDS011;5294;49.410;8.698;2022-11-04T09:27:48;4.00;;;2.60;;
10493;SDS011;5294;49.410;8.698;2022-11-04T09:30:14;2.60;;;1.90;;
10493;SDS011;5294;49.410;8.698;2022-11-04T09:32:40;4.83;;;1.97;;
10493;SDS011;5294;49.410;8.698;2022-11-04T09:35:07;2.40;;;2.30;;
10493;SDS011;5294;49.410;8.698;2022-11-04T09:37:35;3.00;;;2.03;;
10493;SDS011;5294;49.410;8.698;2022-11-04T09:40:02;4.03;;;2.60;;
10493;SDS011;5294;49.410;8.698;2022-11-04T09:44:55;2.90;;;1.87;;
10493;SDS011;5294;49.410;8.698;2022-11-04T09:47:27;2.97;;;2.50;;
10493;SDS011;5294;49.410;8.698;2022-11-04T09:49:57;3.93;;;2.87;;
10493;SDS011;5294;49.410;8.698;2022-11-04T09:52:24;4.40;;;2.23;;
10493;SDS011;5294;49.410;8.698;2022-11-04T09:57:23;3.17;;;2.10;;
10493;SDS011;5294;49.410;8.698;2022-11-04T09:59:49;4.40;;;2.30;;
10493;SDS011;5294;49.410;8.698;2022-11-04T10:04:53;2.40;;;2.17;;
10493;SDS011;5294;49.410;8.698;2022-11-04T10:07:32;3.03;;;2.07;;
10493;SDS011;5294;49.410;8.698;2022-11-04T10:12:38;2.97;;;1.80;;
10493;SDS011;5294;49.410;8.698;2022-11-04T10:22:55;3.17;;;2.10;;
10493;SDS011;5294;49.410;8.698;2022-11-04T10:25:24;4.40;;;2.67;;
10493;SDS011;5294;49.410;8.698;2022-11-04T10:27:51;3.20;;;2.50;;
10493;SDS011;5294;49.410;8.698;2022-11-04T10:30:21;2.10;;;1.80;;
10493;SDS011;5294;49.410;8.698;2022-11-04T10:35:29;4.07;;;2.07;;
10493;SDS011;5294;49.410;8.698;2022-11-04T10:37:57;3.10;;;2.30;;
10493;SDS011;5294;49.410;8.698;2022-11-04T10:40:28;3.07;;;2.47;;
10493;SDS011;5294;49.410;8.698;2022-11-04T10:42:57;3.57;;;2.27;;
10493;SDS011;5294;49.410;8.698;2022-11-04T10:45:27;3.47;;;2.60;;
10493;SDS011;5294;49.410;8.698;2022-11-04T10:47:59;3.37;;;2.23;;
10493;SDS011;5294;49.410;8.698;2022-11-04T10:50:29;2.30;;;2.00;;
10493;SDS011;5294;49.410;8.698;2022-11-04T10:53:08;3.00;;;2.20;;
10493;SDS011;5294;49.410;8.698;2022-11-04T10:55:38;3.33;;;2.27;;
10493;SDS011;5294;49.410;8.698;2022-11-04T10:58:11;3.73;;;2.20;;
10493;SDS011;5294;49.410;8.698;2022-11-04T11:00:41;4.20;;;2.70;;
10493;SDS011;5294;49.410;8.698;2022-11-04T11:06:14;3.27;;;2.50;;
10493;SDS011;5294;49.410;8.698;2022-11-04T11:08:40;3.63;;;2.43;;
10493;SDS011;5294;49.410;8.698;2022-11-04T11:11:08;2.70;;;2.17;;
10493;SDS011;5294;49.410;8.698;2022-11-04T11:13:35;2.77;;;2.30;;
10493;SDS011;5294;49.410;8.698;2022-11-04T11:18:34;4.17;;;2.73;;
10493;SDS011;5294;49.410;8.698;2022-11-04T11:21:03;3.30;;;2.43;;
10493;SDS011;5294;49.410;8.698;2022-11-04T11:23:34;3.50;;;2.30;;
10493;SDS011;5294;49.410;8.698;2022-11-04T11:26:01;2.80;;;2.53;;
10493;SDS011;5294;49.410;8.698;2022-11-04T11:28:27;5.53;;;2.87;;
10493;SDS011;5294;49.410;8.698;2022-11-04T11:33:22;2.37;;;2.17;;
10493;SDS011;5294;49.410;8.698;2022-11-04T11:38:24;3.20;;;2.50;;
10493;SDS011;5294;49.410;8.698;2022-11-04T11:41:13;5.33;;;2.93;;
10493;SDS011;5294;49.410;8.698;2022-11-04T11:43:48;4.77;;;2.53;;
10493;SDS011;5294;49.410;8.698;2022-11-04T11:46:19;5.13;;;2.53;;
10493;SDS011;5294;49.410;8.698;2022-11-04T11:48:49;3.47;;;2.37;;
10493;SDS011;5294;49.410;8.698;2022-11-04T11:51:23;4.60;;;2.50;;
10493;SDS011;5294;49.410;8.698;2022-11-04T11:53:57;3.67;;;2.40;;
10493;SDS011;5294;49.410;8.698;2022-11-04T11:56:29;4.23;;;2.57;;
10493;SDS011;5294;49.410;8.698;2022-11-04T11:59:00;4.93;;;2.63;;
10493;SDS011;5294;49.410;8.698;2022-11-04T12:01:35;4.03;;;2.43;;
10493;SDS011;5294;49.410;8.698;2022-11-04T12:04:04;3.33;;;2.40;;
10493;SDS011;5294;49.410;8.698;2022-11-04T12:06:47;2.83;;;2.63;;
10493;SDS011;5294;49.410;8.698;2022-11-04T12:09:26;4.17;;;2.93;;
10493;SDS011;5294;49.410;8.698;2022-11-04T12:12:02;3.70;;;2.70;;
10493;SDS011;5294;49.410;8.698;2022-11-04T12:14:37;4.60;;;2.97;;
10493;SDS011;5294;49.410;8.698;2022-11-04T12:30:17;3.87;;;3.07;;
10493;SDS011;5294;49.410;8.698;2022-11-04T12:56:16;3.83;;;2.40;;
10493;SDS011;5294;49.410;8.698;2022-11-04T13:03:51;3.37;;;2.27;;
10493;SDS011;5294;49.410;8.698;2022-11-04T13:06:26;5.27;;;2.47;;
10493;SDS011;5294;49.410;8.698;2022-11-04T13:08:55;4.13;;;2.20;;
10493;SDS011;5294;49.410;8.698;2022-11-04T13:11:25;4.00;;;2.30;;
10493;SDS011;5294;49.410;8.698;2022-11-04T13:14:05;4.93;;;2.70;;
10493;SDS011;5294;49.410;8.698;2022-11-04T13:16:35;4.30;;;2.70;;
10493;SDS011;5294;49.410;8.698;2022-11-04T13:19:04;3.40;;;2.37;;
10493;SDS011;5294;49.410;8.698;2022-11-04T13:21:34;3.83;;;2.17;;
10493;SDS011;5294;49.410;8.698;2022-11-04T13:26:28;3.37;;;2.80;;
10493;SDS011;5294;49.410;8.698;2022-11-04T13:29:09;3.77;;;2.53;;
10493;SDS011;5294;49.410;8.698;2022-11-04T13:44:12;2.57;;;2.37;;
10493;SDS011;5294;49.410;8.698;2022-11-04T13:46:39;6.67;;;3.50;;
10493;SDS011;5294;49.410;8.698;2022-11-04T13:51:47;6.10;;;2.80;;
10493;SDS011;5294;49.410;8.698;2022-11-04T13:56:53;2.67;;;1.93;;
10493;SDS011;5294;49.410;8.698;2022-11-04T13:59:30;4.47;;;2.37;;
10493;SDS011;5294;49.410;8.698;2022-11-04T14:04:51;2.90;;;2.30;;
10493;SDS011;5294;49.410;8.698;2022-11-04T14:07:23;2.97;;;2.37;;
10493;SDS011;5294;49.410;8.698;2022-11-04T14:10:29;3.47;;;2.47;;
10493;SDS011;5294;49.410;8.698;2022-11-04T14:12:52;3.43;;;2.23;;
10493;SDS011;5294;49.410;8.698;2022-11-04T14:15:25;4.77;;;2.30;;
10493;SDS011;5294;49.410;8.698;2022-11-04T14:18:24;3.17;;;2.37;;
10493;SDS011;5294;49.410;8.698;2022-11-04T14:23:46;3.70;;;2.23;;
10493;SDS011;5294;49.410;8.698;2022-11-04T14:26:20;3.83;;;2.30;;
10493;SDS011;5294;49.410;8.698;2022-11-04T14:28:48;4.13;;;2.80;;
10493;SDS011;5294;49.410;8.698;2022-11-04T14:34:00;6.37;;;2.80;;
10493;SDS011;5294;49.410;8.698;2022-11-04T14:36:47;2.83;;;2.33;;
10493;SDS011;5294;49.410;8.698;2022-11-04T14:46:41;6.70;;;2.60;;
10493;SDS011;5294;49.410;8.698;2022-11-04T14:49:17;5.63;;;2.60;;
10493;SDS011;5294;49.410;8.698;2022-11-04T14:51:49;5.80;;;2.90;;
10493;SDS011;5294;49.410;8.698;2022-11-04T14:54:21;4.83;;;2.80;;
10493;SDS011;5294;49.410;8.698;2022-11-04T14:56:49;6.00;;;3.13;;
10493;SDS011;5294;49.410;8.698;2022-11-04T14:59:23;3.43;;;2.33;;
10493;SDS011;5294;49.410;8.698;2022-11-04T15:01:51;3.83;;;2.63;;
10493;SDS011;5294;49.410;8.698;2022-11-04T15:04:27;5.00;;;3.13;;
10493;SDS011;5294;49.410;8.698;2022-11-04T15:06:58;5.20;;;3.03;;
10493;SDS011;5294;49.410;8.698;2022-11-04T15:09:34;5.03;;;2.53;;
10493;SDS011;5294;49.410;8.698;2022-11-04T15:12:15;6.57;;;4.13;;
10493;SDS011;5294;49.410;8.698;2022-11-04T15:15:00;5.53;;;3.40;;
10493;SDS011;5294;49.410;8.698;2022-11-04T15:17:28;4.03;;;3.53;;
10493;SDS011;5294;49.410;8.698;2022-11-04T15:19:55;4.60;;;3.57;;
10493;SDS011;5294;49.410;8.698;2022-11-04T15:22:23;7.27;;;3.13;;
10493;SDS011;5294;49.410;8.698;2022-11-04T15:24:49;4.03;;;3.27;;
10493;SDS011;5294;49.410;8.698;2022-11-04T15:27:16;9.90;;;7.03;;
10493;SDS011;5294;49.410;8.698;2022-11-04T15:29:53;8.93;;;6.20;;
10493;SDS011;5294;49.410;8.698;2022-11-04T15:32:23;8.67;;;7.23;;
10493;SDS011;5294;49.410;8.698;2022-11-04T15:34:50;4.67;;;4.13;;
10493;SDS011;5294;49.410;8.698;2022-11-04T15:37:16;3.50;;;2.93;;
10493;SDS011;5294;49.410;8.698;2022-11-04T15:39:43;4.60;;;3.00;;
10493;SDS011;5294;49.410;8.698;2022-11-04T15:42:13;3.50;;;2.90;;
10493;SDS011;5294;49.410;8.698;2022-11-04T15:45:23;4.03;;;3.10;;
10493;SDS011;5294;49.410;8.698;2022-11-04T15:47:55;3.10;;;2.80;;
10493;SDS011;5294;49.410;8.698;2022-11-04T15:50:33;4.00;;;2.80;;
10493;SDS011;5294;49.410;8.698;2022-11-04T15:52:59;5.13;;;3.40;;
10493;SDS011;5294;49.410;8.698;2022-11-04T15:55:25;3.83;;;3.07;;
10493;SDS011;5294;49.410;8.698;2022-11-04T15:57:52;5.23;;;3.40;;
10493;SDS011;5294;49.410;8.698;2022-11-04T16:00:21;6.33;;;2.60;;
10493;SDS011;5294;49.410;8.698;2022-11-04T16:02:58;4.40;;;2.87;;
10493;SDS011;5294;49.410;8.698;2022-11-04T16:05:28;4.70;;;3.27;;
10493;SDS011;5294;49.410;8.698;2022-11-04T16:07:55;3.60;;;2.97;;
10493;SDS011;5294;49.410;8.698;2022-11-04T16:10:38;3.30;;;2.70;;
10493;SDS011;5294;49.410;8.698;2022-11-04T16:20:50;4.47;;;3.43;;
10493;SDS011;5294;49.410;8.698;2022-11-04T16:23:18;7.73;;;3.87;;
10493;SDS011;5294;49.410;8.698;2022-11-04T16:26:01;5.17;;;3.57;;
10493;SDS011;5294;49.410;8.698;2022-11-04T16:28:34;3.83;;;3.03;;
10493;SDS011;5294;49.410;8.698;2022-11-04T16:31:04;4.43;;;3.10;;
10493;SDS011;5294;49.410;8.698;2022-11-04T16:33:30;6.00;;;3.27;;
10493;SDS011;5294;49.410;8.698;2022-11-04T16:35:56;6.23;;;4.47;;
10493;SDS011;5294;49.410;8.698;2022-11-04T16:38:22;4.10;;;3.30;;
10493;SDS011;5294;49.410;8.698;2022-11-04T16:40:51;4.10;;;3.50;;
10493;SDS011;5294;49.410;8.698;2022-11-04T16:43:18;3.63;;;3.20;;
10493;SDS011;5294;49.410;8.698;2022-11-04T16:45:45;4.97;;;3.20;;
10493;SDS011;5294;49.410;8.698;2022-11-04T16:48:15;4.33;;;3.20;;
10493;SDS011;5294;49.410;8.698;2022-11-04T16:50:42;3.40;;;3.10;;
10493;SDS011;5294;49.410;8.698;2022-11-04T16:53:08;4.33;;;2.87;;
10493;SDS011;5294;49.410;8.698;2022-11-04T16:55:34;4.60;;;3.10;;
10493;SDS011;5294;49.410;8.698;2022-11-04T16:58:04;4.97;;;3.00;;
10493;SDS011;5294;49.410;8.698;2022-11-04T17:00:30;4.50;;;3.03;;
10493;SDS011;5294;49.410;8.698;2022-11-04T17:02:57;4.47;;;2.80;;
10493;SDS011;5294;49.410;8.698;2022-11-04T17:05:23;5.73;;;3.43;;
10493;SDS011;5294;49.410;8.698;2022-11-04T17:07:49;4.03;;;3.03;;
10493;SDS011;5294;49.410;8.698;2022-11-04T17:10:19;4.63;;;3.37;;
10493;SDS011;5294;49.410;8.698;2022-11-04T17:12:45;4.57;;;3.03;;
10493;SDS011;5294;49.410;8.698;2022-11-04T17:15:12;4.63;;;3.70;;
10493;SDS011;5294;49.410;8.698;2022-11-04T17:17:38;4.27;;;3.23;;
10493;SDS011;5294;49.410;8.698;2022-11-04T17:20:04;5.00;;;3.60;;
10493;SDS011;5294;49.410;8.698;2022-11-04T17:22:33;4.77;;;3.40;;
10493;SDS011;5294;49.410;8.698;2022-11-04T17:24:59;4.60;;;3.87;;
10493;SDS011;5294;49.410;8.698;2022-11-04T17:27:27;5.03;;;3.60;;
10493;SDS011;5294;49.410;8.698;2022-11-04T17:29:56;5.77;;;4.10;;
10493;SDS011;5294;49.410;8.698;2022-11-04T17:32:24;4.30;;;3.40;;
10493;SDS011;5294;49.410;8.698;2022-11-04T17:34:50;4.87;;;3.27;;
10493;SDS011;5294;49.410;8.698;2022-11-04T17:37:16;5.20;;;3.13;;
10493;SDS011;5294;49.410;8.698;2022-11-04T17:39:42;6.43;;;4.00;;
10493;SDS011;5294;49.410;8.698;2022-11-04T17:42:11;4.67;;;3.50;;
10493;SDS011;5294;49.410;8.698;2022-11-04T17:44:55;4.77;;;4.00;;